createdAt,value
2022-07-25T00:00:58.751Z,10.63
2022-07-25T00:06:02.668Z,9.33
2022-07-25T00:11:05.246Z,10.10
2022-07-25T00:16:07.329Z,9.73
2022-07-25T00:21:09.371Z,10.00
2022-07-25T00:26:11.295Z,10.00
2022-07-25T00:31:13.185Z,9.00
2022-07-25T00:36:15.155Z,10.50
2022-07-25T00:41:17.263Z,10.83
2022-07-25T00:46:19.492Z,10.50
2022-07-25T00:51:22.740Z,10.17
2022-07-25T00:56:25.095Z,10.10
2022-07-25T01:01:28.103Z,10.80
2022-07-25T01:06:30.093Z,10.23
2022-07-25T01:11:32.415Z,10.90
2022-07-25T01:16:35.350Z,9.77
2022-07-25T01:21:42.360Z,9.97
2022-07-25T01:26:44.310Z,10.60
2022-07-25T01:31:46.170Z,9.70
2022-07-25T01:36:48.406Z,10.90
2022-07-25T01:41:50.204Z,10.80
2022-07-25T01:46:53.107Z,10.40
2022-07-25T01:51:54.961Z,10.33
2022-07-25T01:56:56.791Z,10.17
2022-07-25T02:01:59.149Z,11.00
2022-07-25T02:07:01.421Z,11.03
2022-07-25T02:12:03.560Z,11.97
2022-07-25T02:17:05.617Z,10.70
2022-07-25T02:22:07.912Z,11.17
2022-07-25T02:27:09.803Z,10.93
2022-07-25T02:32:12.121Z,11.13
2022-07-25T02:37:14.406Z,11.27
2022-07-25T02:42:16.676Z,12.00
2022-07-25T02:47:18.562Z,11.87
2022-07-25T02:52:20.474Z,11.67
2022-07-25T02:57:22.346Z,11.40
2022-07-25T03:02:24.343Z,10.60
2022-07-25T03:07:26.171Z,11.00
2022-07-25T03:12:28.435Z,12.23
2022-07-25T03:17:30.672Z,11.13
2022-07-25T03:22:33.010Z,11.33
2022-07-25T03:27:35.222Z,11.33
2022-07-25T03:32:37.444Z,10.90
2022-07-25T03:37:39.672Z,11.30
2022-07-25T03:42:41.733Z,11.43
2022-07-25T03:47:44.047Z,11.87
2022-07-25T03:52:46.298Z,12.13
2022-07-25T03:57:48.161Z,11.90
2022-07-25T04:02:50.548Z,12.27
2022-07-25T04:07:52.903Z,13.53
2022-07-25T04:12:55.144Z,12.37
2022-07-25T04:17:57.380Z,12.07
2022-07-25T04:22:59.205Z,11.87
2022-07-25T04:28:01.050Z,13.30
2022-07-25T04:33:03.378Z,11.70
2022-07-25T04:38:10.206Z,12.43
2022-07-25T04:43:14.554Z,13.57
2022-07-25T04:48:16.843Z,13.77
2022-07-25T04:53:19.187Z,13.27
2022-07-25T04:58:21.454Z,12.80
2022-07-25T05:03:23.679Z,13.43
2022-07-25T05:08:25.906Z,13.43
2022-07-25T05:13:28.159Z,13.90
2022-07-25T05:18:30.040Z,14.57
2022-07-25T05:23:33.636Z,13.67
2022-07-25T05:28:36.406Z,13.80
2022-07-25T05:33:38.656Z,13.10
2022-07-25T05:38:40.868Z,13.50
2022-07-25T05:43:46.092Z,12.80
2022-07-25T05:48:48.386Z,13.70
2022-07-25T05:53:50.686Z,13.60
2022-07-25T05:58:53.361Z,14.30
2022-07-25T06:03:55.617Z,14.37
2022-07-25T06:08:58.055Z,14.13
2022-07-25T06:14:00.431Z,13.50
2022-07-25T06:19:02.710Z,14.60
2022-07-25T06:24:05.390Z,13.17
2022-07-25T06:29:07.486Z,13.67
2022-07-25T06:34:09.744Z,13.13
2022-07-25T06:39:11.925Z,14.07
2022-07-25T06:44:14.207Z,12.90
2022-07-25T06:49:16.487Z,14.10
2022-07-25T06:54:18.772Z,14.33
2022-07-25T06:59:21.038Z,14.30
2022-07-25T07:04:23.309Z,14.20
2022-07-25T07:09:25.675Z,13.30
2022-07-25T07:14:27.774Z,13.60
2022-07-25T07:19:30.622Z,14.47
2022-07-25T07:24:32.490Z,12.80
2022-07-25T07:29:34.772Z,13.23
2022-07-25T07:34:39.932Z,13.77
2022-07-25T07:39:42.244Z,13.83
2022-07-25T07:44:44.516Z,13.97
2022-07-25T07:49:50.215Z,12.90
2022-07-25T07:55:11.185Z,12.37
2022-07-25T08:00:16.700Z,13.00
2022-07-25T08:05:24.291Z,13.20
2022-07-25T08:10:28.681Z,12.40
2022-07-25T08:15:30.993Z,13.90
2022-07-25T08:20:38.329Z,13.50
2022-07-25T08:25:41.464Z,13.20
2022-07-25T08:30:43.497Z,12.63
2022-07-25T08:35:54.656Z,11.83
2022-07-25T08:40:57.497Z,13.70
2022-07-25T08:46:00.890Z,13.00
2022-07-25T08:51:03.324Z,13.87
2022-07-25T08:56:11.653Z,14.37
2022-07-25T09:01:17.102Z,13.80
2022-07-25T09:06:21.035Z,14.67
2022-07-25T09:11:35.469Z,15.57
2022-07-25T09:16:46.017Z,13.53
2022-07-25T09:22:00.359Z,15.93
2022-07-25T09:27:12.026Z,14.70
2022-07-25T09:32:19.925Z,14.07
2022-07-25T09:37:26.665Z,14.40
2022-07-25T09:42:36.359Z,13.87
2022-07-25T09:48:02.361Z,14.07
2022-07-25T09:53:04.668Z,12.90
2022-07-25T09:58:06.569Z,11.33
2022-07-25T10:03:18.096Z,11.97
2022-07-25T10:08:21.307Z,11.37
2022-07-25T10:13:30.767Z,12.10
2022-07-25T10:18:34.428Z,12.00
2022-07-25T10:23:36.757Z,10.20
2022-07-25T10:28:51.324Z,11.27
2022-07-25T10:33:59.202Z,10.60
2022-07-25T10:39:02.081Z,10.03
2022-07-25T10:44:04.580Z,11.10
2022-07-25T10:49:08.869Z,10.13
2022-07-25T10:54:17.873Z,10.27
2022-07-25T10:59:27.557Z,8.70
2022-07-25T11:04:30.247Z,8.77
2022-07-25T11:09:32.508Z,8.20
2022-07-25T11:14:37.445Z,7.20
2022-07-25T11:19:39.743Z,7.20
2022-07-25T11:24:43.414Z,7.77
2022-07-25T11:29:45.689Z,7.60
2022-07-25T11:34:53.001Z,6.97
2022-07-25T11:39:56.276Z,7.43
2022-07-25T11:44:58.648Z,7.00
2022-07-25T11:50:02.221Z,7.53
2022-07-25T11:55:05.851Z,7.33
2022-07-25T12:00:26.302Z,6.47
2022-07-25T12:05:33.398Z,7.53
2022-07-25T12:10:36.683Z,6.83
2022-07-25T12:15:40.622Z,6.90
2022-07-25T12:20:43.762Z,6.77
2022-07-25T12:25:46.988Z,6.57
2022-07-25T12:30:55.942Z,6.97
2022-07-25T12:35:59.338Z,6.80
2022-07-25T12:41:01.660Z,5.80
2022-07-25T12:46:03.719Z,5.97
2022-07-25T12:51:06.136Z,6.23
2022-07-25T12:56:08.654Z,6.53
2022-07-25T13:01:13.617Z,5.87
2022-07-25T13:06:16.287Z,5.90
2022-07-25T13:11:19.047Z,7.00
2022-07-25T13:16:21.304Z,6.83
2022-07-25T13:21:23.728Z,6.90
2022-07-25T13:26:26.833Z,6.83
2022-07-25T13:31:29.276Z,6.87
2022-07-25T13:36:32.483Z,7.10
2022-07-25T13:41:34.772Z,6.97
2022-07-25T13:46:36.686Z,6.53
2022-07-25T13:51:38.956Z,6.70
2022-07-25T13:56:42.349Z,7.20
2022-07-25T14:01:46.050Z,7.10
2022-07-25T14:06:51.975Z,7.70
2022-07-25T14:11:54.318Z,6.93
2022-07-25T14:16:56.390Z,7.30
2022-07-25T14:21:58.792Z,7.47
2022-07-25T14:27:00.874Z,7.13
2022-07-25T14:32:02.908Z,7.30
2022-07-25T14:37:05.799Z,7.63
2022-07-25T14:42:11.190Z,7.63
2022-07-25T14:47:13.164Z,6.70
2022-07-25T14:52:15.828Z,6.50
2022-07-25T14:57:17.730Z,7.43
2022-07-25T15:02:20.035Z,6.90
2022-07-25T15:07:21.975Z,7.67
2022-07-25T15:12:23.861Z,7.40
2022-07-25T15:17:26.209Z,7.93
2022-07-25T15:22:28.035Z,7.17
2022-07-25T15:27:29.996Z,7.10
2022-07-25T15:32:32.281Z,7.63
2022-07-25T15:37:34.179Z,7.73
2022-07-25T15:42:38.410Z,7.10
2022-07-25T15:47:40.765Z,7.80
2022-07-25T15:52:42.785Z,7.00
2022-07-25T15:57:44.626Z,7.67
2022-07-25T16:02:47.120Z,7.37
2022-07-25T16:07:49.502Z,7.50
2022-07-25T16:12:51.385Z,7.53
2022-07-25T16:18:00.174Z,7.97
2022-07-25T16:23:04.607Z,7.43
2022-07-25T16:28:06.903Z,7.70
2022-07-25T16:33:09.034Z,6.93
2022-07-25T16:38:10.859Z,7.33
2022-07-25T16:43:12.706Z,7.10
2022-07-25T16:48:14.689Z,7.17
2022-07-25T16:53:16.569Z,6.97
2022-07-25T16:58:18.476Z,7.43
2022-07-25T17:03:20.875Z,7.60
2022-07-25T17:08:23.660Z,7.80
2022-07-25T17:13:26.206Z,7.27
2022-07-25T17:18:28.107Z,7.40
2022-07-25T17:23:30.011Z,7.50
2022-07-25T17:28:32.165Z,6.37
2022-07-25T17:33:34.009Z,6.17
2022-07-25T17:38:37.260Z,6.23
2022-07-25T17:43:39.138Z,6.47
2022-07-25T17:48:41.750Z,7.00
2022-07-25T17:53:43.786Z,6.40
2022-07-25T17:58:45.715Z,6.40
2022-07-25T18:03:47.637Z,6.13
2022-07-25T18:08:49.970Z,6.30
2022-07-25T18:13:51.882Z,5.80
2022-07-25T18:18:54.176Z,6.40
2022-07-25T18:23:56.778Z,6.07
2022-07-25T18:28:59.057Z,6.43
2022-07-25T18:34:01.565Z,5.93
2022-07-25T18:39:03.536Z,6.10
2022-07-25T18:44:06.751Z,6.90
2022-07-25T18:49:09.638Z,6.50
2022-07-25T18:54:11.561Z,6.60
2022-07-25T18:59:13.497Z,6.87
2022-07-25T19:04:17.381Z,6.23
2022-07-25T19:09:19.702Z,6.43
2022-07-25T19:14:24.050Z,7.00
2022-07-25T19:19:26.995Z,6.57
2022-07-25T19:24:29.969Z,7.30
2022-07-25T19:29:32.319Z,6.13
2022-07-25T19:34:34.607Z,7.60
2022-07-25T19:39:36.580Z,6.87
2022-07-25T19:44:38.498Z,7.13
2022-07-25T19:49:41.399Z,6.97
2022-07-25T19:54:43.768Z,6.60
2022-07-25T19:59:46.027Z,6.53
2022-07-25T20:04:48.281Z,6.00
2022-07-25T20:09:50.541Z,6.87
2022-07-25T20:14:53.233Z,6.57
2022-07-25T20:19:55.642Z,6.30
2022-07-25T20:24:57.878Z,6.30
2022-07-25T20:30:01.281Z,6.20
2022-07-25T20:35:03.938Z,6.37
2022-07-25T20:40:08.734Z,5.83
2022-07-25T20:45:11.011Z,5.90
2022-07-25T20:50:13.404Z,6.47
2022-07-25T20:55:15.799Z,6.37
2022-07-25T21:00:18.153Z,6.57
2022-07-25T21:05:20.888Z,6.53
2022-07-25T21:10:23.527Z,7.00
2022-07-25T21:15:25.443Z,6.37
2022-07-25T21:20:28.112Z,6.37
2022-07-25T21:25:29.984Z,6.50
2022-07-25T21:30:32.327Z,6.17
2022-07-25T21:35:49.289Z,7.07
2022-07-25T21:40:57.188Z,6.40
2022-07-25T21:45:59.127Z,6.20
2022-07-25T21:51:01.419Z,6.20
2022-07-25T21:56:09.610Z,5.83
2022-07-25T22:01:12.018Z,6.43
2022-07-25T22:06:14.331Z,6.80
2022-07-25T22:11:38.684Z,6.23
2022-07-25T22:16:39.283Z,6.20
2022-07-25T22:21:41.853Z,6.53
2022-07-25T22:26:43.770Z,6.00
2022-07-25T22:31:46.161Z,5.77
2022-07-25T22:36:48.494Z,5.53
2022-07-25T22:41:50.353Z,5.57
2022-07-25T22:46:52.646Z,4.63
2022-07-25T22:51:54.904Z,4.37
2022-07-25T22:56:57.201Z,4.00
2022-07-25T23:01:59.512Z,4.20
2022-07-25T23:07:01.492Z,4.00
2022-07-25T23:12:04.140Z,4.17
2022-07-25T23:17:18.177Z,3.93
2022-07-25T23:22:21.796Z,4.20
2022-07-25T23:27:24.154Z,4.13
2022-07-25T23:32:26.375Z,4.63
2022-07-25T23:37:28.261Z,4.00
2022-07-25T23:42:30.655Z,4.50
2022-07-25T23:47:39.248Z,4.30
2022-07-25T23:52:42.031Z,5.00
2022-07-25T23:57:44.135Z,4.67
